createdAt,value
2018-07-01T00:00:33.781Z,55.24
2018-07-01T00:03:06.575Z,55.82
2018-07-01T00:05:35.953Z,55.75
2018-07-01T00:08:06.508Z,56.31
2018-07-01T00:10:37.299Z,56.25
2018-07-01T00:13:07.854Z,55.87
2018-07-01T00:15:37.591Z,55.11
2018-07-01T00:18:07.056Z,55.84
2018-07-01T00:20:36.426Z,56.58
2018-07-01T00:23:06.480Z,56.35
2018-07-01T00:25:35.814Z,55.90
2018-07-01T00:28:05.142Z,56.87
2018-07-01T00:30:34.437Z,57.37
2018-07-01T00:33:03.817Z,56.96
2018-07-01T00:35:33.158Z,57.48
2018-07-01T00:38:02.530Z,57.72
2018-07-01T00:40:31.884Z,57.27
2018-07-01T00:43:01.286Z,56.56
2018-07-01T00:45:30.893Z,56.32
2018-07-01T00:48:00.230Z,57.33
2018-07-01T00:50:29.580Z,56.35
2018-07-01T00:52:58.948Z,57.05
2018-07-01T00:55:28.077Z,56.45
2018-07-01T00:57:57.541Z,57.30
2018-07-01T01:00:31.884Z,57.27
2018-07-01T01:03:02.042Z,57.44
2018-07-01T01:05:31.869Z,57.15
2018-07-01T01:08:01.249Z,56.27
2018-07-01T01:10:30.635Z,56.33
2018-07-01T01:13:00.015Z,57.14
2018-07-01T01:15:29.726Z,56.75
2018-07-01T01:17:59.117Z,57.39
2018-07-01T01:20:28.462Z,56.00
2018-07-01T01:22:58.863Z,56.60
2018-07-01T01:25:28.630Z,57.74
2018-07-01T01:27:58.002Z,55.89
2018-07-01T01:30:27.424Z,56.76
2018-07-01T01:32:56.973Z,57.48
2018-07-01T01:35:26.404Z,58.29
2018-07-01T01:37:55.793Z,57.85
2018-07-01T01:40:28.498Z,57.53
2018-07-01T01:43:02.104Z,57.84
2018-07-01T01:46:11.264Z,58.19
2018-07-01T01:48:45.929Z,58.10
2018-07-01T01:51:25.833Z,57.53
2018-07-01T01:54:02.289Z,58.06
2018-07-01T01:56:36.457Z,57.62
2018-07-01T01:59:11.066Z,58.63
2018-07-01T02:01:43.450Z,58.74
2018-07-01T02:04:21.731Z,58.03
2018-07-01T02:06:56.213Z,58.64
2018-07-01T02:09:29.445Z,58.26
2018-07-01T02:12:00.304Z,59.29
2018-07-01T02:14:33.593Z,58.90
2018-07-01T02:17:05.201Z,58.45
2018-07-01T02:19:34.629Z,58.96
2018-07-01T02:22:07.111Z,59.54
2018-07-01T02:24:39.880Z,59.22
2018-07-01T02:27:09.266Z,60.21
2018-07-01T02:29:38.297Z,58.50
2018-07-01T02:32:07.794Z,59.12
2018-07-01T02:34:37.110Z,59.00
2018-07-01T02:37:06.553Z,59.78
2018-07-01T02:39:35.949Z,60.03
2018-07-01T02:42:05.716Z,60.27
2018-07-01T02:44:35.145Z,60.06
2018-07-01T02:47:04.518Z,60.58
2018-07-01T02:49:33.864Z,59.95
2018-07-01T02:52:03.245Z,60.98
2018-07-01T02:54:32.602Z,60.48
2018-07-01T02:57:01.970Z,60.30
2018-07-01T02:59:31.360Z,60.70
2018-07-01T03:02:00.757Z,60.62
2018-07-01T03:04:30.141Z,59.50
2018-07-01T03:06:59.541Z,60.42
2018-07-01T03:09:28.923Z,61.13
2018-07-01T03:11:58.370Z,61.50
2018-07-01T03:14:28.020Z,61.33
2018-07-01T03:16:57.426Z,61.16
2018-07-01T03:19:26.895Z,61.18
2018-07-01T03:21:56.332Z,61.35
2018-07-01T03:24:25.742Z,61.04
2018-07-01T03:26:55.119Z,61.26
2018-07-01T03:29:24.514Z,61.31
2018-07-01T03:31:53.866Z,61.79
2018-07-01T03:34:23.260Z,62.01
2018-07-01T03:36:52.576Z,61.86
2018-07-01T03:39:21.911Z,62.49
2018-07-01T03:41:51.248Z,61.00
2018-07-01T03:44:20.574Z,61.96
2018-07-01T03:46:49.903Z,61.61
2018-07-01T03:49:19.234Z,62.12
2018-07-01T03:51:48.634Z,62.20
2018-07-01T03:54:18.040Z,61.76
2018-07-01T03:56:47.385Z,62.36
2018-07-01T03:59:16.751Z,62.73
2018-07-01T04:01:46.164Z,61.65
2018-07-01T04:04:15.550Z,62.60
2018-07-01T04:06:44.924Z,61.94
2018-07-01T04:09:14.385Z,62.25
2018-07-01T04:11:43.735Z,61.19
2018-07-01T04:14:13.117Z,62.56
2018-07-01T04:16:42.442Z,61.10
2018-07-01T04:19:11.839Z,61.91
2018-07-01T04:21:41.192Z,62.92
2018-07-01T04:24:10.529Z,61.33
2018-07-01T04:26:39.845Z,61.28
2018-07-01T04:29:09.176Z,61.57
2018-07-01T04:31:38.493Z,61.39
2018-07-01T04:34:07.805Z,61.63
2018-07-01T04:36:37.174Z,61.80
2018-07-01T04:39:08.726Z,60.96
2018-07-01T04:41:38.089Z,61.02
2018-07-01T04:44:07.594Z,60.45
2018-07-01T04:46:37.099Z,60.28
2018-07-01T04:49:06.500Z,60.96
2018-07-01T04:51:35.827Z,61.02
2018-07-01T04:54:05.183Z,61.32
2018-07-01T04:56:34.743Z,61.40
2018-07-01T04:59:04.133Z,61.05
2018-07-01T05:01:33.533Z,60.32
2018-07-01T05:04:02.951Z,60.31
2018-07-01T05:06:32.277Z,60.23
2018-07-01T05:09:02.717Z,58.55
2018-07-01T05:11:32.082Z,59.76
2018-07-01T05:14:01.543Z,59.26
2018-07-01T05:16:30.925Z,58.91
2018-07-01T05:19:00.286Z,57.02
2018-07-01T05:21:29.889Z,56.49
2018-07-01T05:23:59.278Z,57.54
2018-07-01T05:26:28.745Z,57.63
2018-07-01T05:28:58.462Z,56.45
2018-07-01T05:31:27.971Z,56.17
2018-07-01T05:33:57.925Z,55.10
2018-07-01T05:36:27.384Z,56.83
2018-07-01T05:38:56.775Z,57.77
2018-07-01T05:41:26.113Z,55.59
2018-07-01T05:43:55.632Z,57.75
2018-07-01T05:46:24.999Z,56.63
2018-07-01T05:48:54.337Z,56.82
2018-07-01T05:51:23.705Z,56.51
2018-07-01T05:53:53.030Z,54.52
2018-07-01T05:56:22.439Z,55.88
2018-07-01T05:58:51.792Z,55.76
2018-07-01T06:01:21.145Z,53.92
2018-07-01T06:03:50.519Z,54.51
2018-07-01T06:06:19.882Z,54.76
2018-07-01T06:08:49.285Z,55.83
2018-07-01T06:11:18.865Z,54.81
2018-07-01T06:13:48.198Z,54.45
2018-07-01T06:16:18.083Z,52.84
2018-07-01T06:18:47.449Z,54.62
2018-07-01T06:21:16.918Z,52.98
2018-07-01T06:23:46.305Z,54.59
2018-07-01T06:26:15.610Z,55.84
2018-07-01T06:28:44.920Z,54.82
2018-07-01T06:31:14.279Z,55.45
2018-07-01T06:33:43.626Z,53.98
2018-07-01T06:36:12.983Z,52.86
2018-07-01T06:38:42.436Z,52.78
2018-07-01T06:41:11.812Z,51.25
2018-07-01T06:43:41.135Z,52.92
2018-07-01T06:46:10.702Z,52.71
2018-07-01T06:48:40.065Z,51.30
2018-07-01T06:51:09.445Z,51.91
2018-07-01T06:53:38.969Z,51.86
2018-07-01T06:56:08.297Z,52.67
2018-07-01T06:58:37.625Z,50.80
2018-07-01T07:01:07.116Z,52.79
2018-07-01T07:03:36.521Z,51.66
2018-07-01T07:06:05.914Z,51.74
2018-07-01T07:08:35.465Z,50.62
2018-07-01T07:11:04.813Z,50.81
2018-07-01T07:13:35.046Z,51.20
2018-07-01T07:16:04.473Z,50.36
2018-07-01T07:18:33.847Z,49.22
2018-07-01T07:21:03.329Z,50.22
2018-07-01T07:23:32.776Z,49.83
2018-07-01T07:26:02.750Z,49.62
2018-07-01T07:28:32.212Z,51.39
2018-07-01T07:31:01.559Z,49.63
2018-07-01T07:33:30.954Z,47.28
2018-07-01T07:36:02.714Z,49.47
2018-07-01T07:38:33.968Z,48.38
2018-07-01T07:41:04.724Z,48.19
2018-07-01T07:43:38.373Z,50.00
2018-07-01T07:46:07.741Z,49.63
2018-07-01T07:48:37.393Z,48.89
2018-07-01T07:51:06.726Z,49.62
2018-07-01T07:53:36.095Z,51.41
2018-07-01T07:56:05.484Z,50.23
2018-07-01T07:58:34.845Z,47.16
2018-07-01T08:01:04.226Z,47.70
2018-07-01T08:03:33.598Z,47.20
2018-07-01T08:06:02.937Z,46.93
2018-07-01T08:08:32.342Z,46.68
2018-07-01T08:11:01.788Z,46.33
2018-07-01T08:13:31.201Z,44.13
2018-07-01T08:16:01.589Z,45.22
2018-07-01T08:18:30.995Z,44.77
2018-07-01T08:21:00.422Z,45.17
2018-07-01T08:23:29.964Z,46.44
2018-07-01T08:25:59.603Z,47.55
2018-07-01T08:28:29.062Z,48.81
2018-07-01T08:30:58.471Z,46.79
2018-07-01T08:33:27.876Z,48.17
2018-07-01T08:35:57.364Z,47.77
2018-07-01T08:38:26.885Z,48.49
2018-07-01T08:41:03.380Z,45.58
2018-07-01T08:43:33.634Z,46.88
2018-07-01T08:46:03.061Z,47.25
2018-07-01T08:48:32.430Z,44.51
2018-07-01T08:51:01.830Z,46.49
2018-07-01T08:53:31.199Z,44.73
2018-07-01T08:56:00.688Z,45.84
2018-07-01T08:58:30.145Z,43.33
2018-07-01T09:00:59.644Z,43.34
2018-07-01T09:03:29.181Z,44.75
2018-07-01T09:05:58.579Z,42.74
2018-07-01T09:08:28.687Z,45.38
2018-07-01T09:10:58.096Z,45.52
2018-07-01T09:13:27.496Z,47.79
2018-07-01T09:15:57.059Z,45.75
2018-07-01T09:18:26.429Z,46.02
2018-07-01T09:20:55.888Z,45.52
2018-07-01T09:23:25.634Z,45.21
2018-07-01T09:25:55.223Z,41.91
2018-07-01T09:28:24.791Z,43.19
2018-07-01T09:30:54.180Z,42.94
2018-07-01T09:33:23.518Z,42.41
2018-07-01T09:35:52.897Z,40.24
2018-07-01T09:38:22.371Z,45.92
2018-07-01T09:40:51.695Z,44.47
2018-07-01T09:43:21.115Z,44.42
2018-07-01T09:45:50.390Z,43.58
2018-07-01T09:48:19.787Z,42.26
2018-07-01T09:50:49.114Z,44.19
2018-07-01T09:53:18.502Z,42.28
2018-07-01T09:55:47.861Z,42.18
2018-07-01T09:58:17.217Z,42.18
2018-07-01T10:00:46.583Z,43.17
2018-07-01T10:03:15.976Z,43.09
2018-07-01T10:05:45.385Z,43.22
2018-07-01T10:08:14.804Z,40.27
2018-07-01T10:10:44.124Z,42.80
2018-07-01T10:13:13.541Z,43.39
2018-07-01T10:15:43.030Z,40.48
2018-07-01T10:18:12.541Z,41.35
2018-07-01T10:20:41.924Z,40.19
2018-07-01T10:23:11.301Z,40.86
2018-07-01T10:25:40.690Z,41.39
2018-07-01T10:28:10.105Z,39.77
2018-07-01T10:30:39.511Z,39.03
2018-07-01T10:33:08.899Z,42.13
2018-07-01T10:35:38.242Z,39.82
2018-07-01T10:38:07.675Z,39.51
2018-07-01T10:40:37.047Z,40.28
2018-07-01T10:43:07.528Z,42.84
2018-07-01T10:45:36.903Z,43.03
2018-07-01T10:48:06.332Z,40.15
2018-07-01T10:50:35.743Z,40.26
2018-07-01T10:53:05.318Z,41.35
2018-07-01T10:55:34.664Z,44.06
2018-07-01T10:58:04.049Z,41.20
2018-07-01T11:00:33.708Z,42.96
2018-07-01T11:03:03.042Z,41.66
2018-07-01T11:05:32.727Z,40.29
2018-07-01T11:08:02.092Z,42.47
2018-07-01T11:10:31.537Z,39.57
2018-07-01T11:13:00.997Z,39.94
2018-07-01T11:15:30.382Z,40.25
2018-07-01T11:17:59.826Z,39.88
2018-07-01T11:20:29.409Z,40.69
2018-07-01T11:22:58.959Z,38.86
2018-07-01T11:25:28.393Z,41.37
2018-07-01T11:27:57.882Z,36.84
2018-07-01T11:30:27.319Z,39.81
2018-07-01T11:32:56.793Z,41.68
2018-07-01T11:35:26.228Z,36.49
2018-07-01T11:37:55.698Z,41.06
2018-07-01T11:40:25.068Z,40.94
2018-07-01T11:42:54.424Z,38.68
2018-07-01T11:45:23.773Z,38.05
2018-07-01T11:47:53.137Z,38.89
2018-07-01T11:50:22.512Z,38.10
2018-07-01T11:52:52.596Z,38.51
2018-07-01T11:55:21.951Z,39.14
2018-07-01T11:57:51.281Z,39.27
2018-07-01T12:00:20.710Z,35.04
2018-07-01T12:02:50.321Z,38.85
2018-07-01T12:05:19.848Z,41.33
2018-07-01T12:07:49.195Z,39.55
2018-07-01T12:10:18.597Z,40.96
2018-07-01T12:12:47.932Z,40.02
2018-07-01T12:15:17.663Z,38.05
2018-07-01T12:17:48.081Z,38.75
2018-07-01T12:20:17.819Z,39.71
2018-07-01T12:22:48.540Z,38.20
2018-07-01T12:25:18.492Z,40.48
2018-07-01T12:27:47.975Z,38.45
2018-07-01T12:30:17.469Z,38.38
2018-07-01T12:32:46.930Z,36.60
2018-07-01T12:35:16.312Z,39.39
2018-07-01T12:37:45.733Z,36.92
2018-07-01T12:40:15.205Z,40.00
2018-07-01T12:42:44.753Z,38.32
2018-07-01T12:45:14.147Z,38.63
2018-07-01T12:47:43.664Z,37.97
2018-07-01T12:50:13.053Z,37.86
2018-07-01T12:52:42.530Z,37.47
2018-07-01T12:55:12.115Z,37.97
2018-07-01T12:57:41.496Z,38.82
2018-07-01T13:00:10.971Z,36.96
2018-07-01T13:02:40.341Z,35.75
2018-07-01T13:05:09.821Z,37.88
2018-07-01T13:07:39.200Z,36.48
2018-07-01T13:10:08.922Z,37.02
2018-07-01T13:12:38.875Z,34.69
2018-07-01T13:15:08.310Z,37.15
2018-07-01T13:17:37.672Z,36.65
2018-07-01T13:20:07.402Z,39.34
2018-07-01T13:22:36.799Z,35.45
2018-07-01T13:25:06.337Z,37.21
2018-07-01T13:27:35.721Z,36.45
2018-07-01T13:30:05.610Z,35.53
2018-07-01T13:32:35.152Z,36.12
2018-07-01T13:35:04.598Z,36.50
2018-07-01T13:37:34.089Z,34.91
2018-07-01T13:40:03.449Z,35.34
2018-07-01T13:42:32.827Z,36.65
2018-07-01T13:45:02.189Z,38.50
2018-07-01T13:47:31.533Z,37.33
2018-07-01T13:50:00.885Z,37.42
2018-07-01T13:52:30.275Z,38.88
2018-07-01T13:55:00.002Z,39.00
2018-07-01T13:57:29.399Z,34.64
2018-07-01T13:59:59.426Z,37.04
2018-07-01T14:02:28.842Z,36.10
2018-07-01T14:04:58.229Z,34.66
2018-07-01T14:07:27.738Z,32.86
2018-07-01T14:09:57.159Z,35.76
2018-07-01T14:12:26.584Z,34.30
2018-07-01T14:14:55.949Z,35.50
2018-07-01T14:17:25.431Z,36.68
2018-07-01T14:19:54.890Z,34.19
2018-07-01T14:22:24.225Z,37.20
2018-07-01T14:24:53.827Z,35.17
2018-07-01T14:27:23.226Z,36.12
2018-07-01T14:29:52.580Z,36.43
2018-07-01T14:32:21.930Z,36.50
2018-07-01T14:34:51.317Z,34.44
2018-07-01T14:37:20.732Z,35.82
2018-07-01T14:39:50.172Z,37.14
2018-07-01T14:42:19.574Z,35.00
2018-07-01T14:44:49.206Z,37.16
2018-07-01T14:47:18.609Z,34.39
2018-07-01T14:49:47.961Z,35.61
2018-07-01T14:52:17.316Z,35.72
2018-07-01T14:54:46.715Z,34.87
2018-07-01T14:57:16.132Z,35.21
2018-07-01T14:59:45.523Z,36.99
2018-07-01T15:02:14.939Z,36.13
2018-07-01T15:04:44.370Z,34.71
2018-07-01T15:07:14.024Z,35.21
2018-07-01T15:09:43.432Z,35.09
2018-07-01T15:12:12.869Z,34.79
2018-07-01T15:14:42.293Z,35.14
2018-07-01T15:17:11.683Z,34.39
2018-07-01T15:19:41.029Z,34.79
2018-07-01T15:22:10.500Z,36.87
2018-07-01T15:24:39.805Z,34.70
2018-07-01T15:27:09.311Z,35.52
2018-07-01T15:29:38.887Z,36.02
2018-07-01T15:32:08.535Z,35.44
2018-07-01T15:34:39.025Z,35.34
2018-07-01T15:37:09.034Z,34.01
2018-07-01T15:39:38.602Z,34.06
2018-07-01T15:42:08.050Z,35.21
2018-07-01T15:44:37.515Z,35.15
2018-07-01T15:47:07.158Z,35.15
2018-07-01T15:49:36.533Z,35.74
2018-07-01T15:52:06.057Z,35.69
2018-07-01T15:54:35.988Z,35.10
2018-07-01T15:57:05.641Z,36.20
2018-07-01T15:59:35.047Z,35.78
2018-07-01T16:02:04.428Z,35.75
2018-07-01T16:04:33.828Z,35.08
2018-07-01T16:07:03.198Z,34.69
2018-07-01T16:09:32.567Z,35.21
2018-07-01T16:12:01.929Z,35.40
2018-07-01T16:14:31.277Z,35.37
2018-07-01T16:17:00.734Z,35.51
2018-07-01T16:19:30.113Z,35.68
2018-07-01T16:21:59.615Z,36.22
2018-07-01T16:24:29.118Z,35.02
2018-07-01T16:27:03.695Z,35.38
2018-07-01T16:29:33.076Z,35.40
2018-07-01T16:32:02.391Z,35.72
2018-07-01T16:34:31.761Z,36.84
2018-07-01T16:37:01.194Z,36.44
2018-07-01T16:39:30.571Z,35.98
2018-07-01T16:42:00.000Z,35.66
2018-07-01T16:44:29.363Z,36.35
2018-07-01T16:46:59.190Z,36.23
2018-07-01T16:49:28.639Z,36.39
2018-07-01T16:51:58.021Z,36.51
2018-07-01T16:54:27.396Z,36.58
2018-07-01T16:56:56.801Z,37.46
2018-07-01T16:59:27.126Z,35.69
2018-07-01T17:01:56.658Z,36.39
2018-07-01T17:04:26.061Z,36.47
2018-07-01T17:06:55.526Z,36.01
2018-07-01T17:09:25.025Z,36.58
2018-07-01T17:11:54.541Z,36.63
2018-07-01T17:14:23.991Z,35.72
2018-07-01T17:16:53.496Z,35.29
2018-07-01T17:19:23.500Z,35.56
2018-07-01T17:21:52.936Z,36.34
2018-07-01T17:24:22.439Z,37.21
2018-07-01T17:26:53.272Z,36.75
2018-07-01T17:29:22.702Z,36.34
2018-07-01T17:31:57.437Z,36.54
2018-07-01T17:34:27.010Z,36.17
2018-07-01T17:36:56.437Z,36.04
2018-07-01T17:39:25.862Z,36.38
2018-07-01T17:41:58.740Z,36.64
2018-07-01T17:44:28.312Z,36.26
2018-07-01T17:46:57.898Z,36.63
2018-07-01T17:49:27.569Z,36.27
2018-07-01T17:51:57.028Z,38.39
2018-07-01T17:54:26.435Z,38.28
2018-07-01T17:56:55.897Z,37.71
2018-07-01T17:59:25.306Z,38.04
2018-07-01T18:01:54.778Z,37.44
2018-07-01T18:04:24.149Z,38.63
2018-07-01T18:06:53.531Z,38.04
2018-07-01T18:09:23.012Z,37.45
2018-07-01T18:11:52.486Z,38.70
2018-07-01T18:14:21.852Z,40.50
2018-07-01T18:16:51.251Z,40.49
2018-07-01T18:19:20.722Z,39.43
2018-07-01T18:22:09.757Z,39.18
2018-07-01T18:24:48.923Z,39.71
2018-07-01T18:26:49.923Z,41.20
2018-07-01T18:29:20.353Z,41.61
2018-07-01T18:31:50.347Z,39.92
2018-07-01T18:34:19.717Z,42.78
2018-07-01T18:36:49.187Z,40.63
2018-07-01T18:39:18.622Z,41.71
2018-07-01T18:41:47.947Z,42.66
2018-07-01T18:44:17.293Z,42.15
2018-07-01T18:46:46.840Z,42.11
2018-07-01T18:49:16.206Z,41.00
2018-07-01T18:51:45.622Z,41.28
2018-07-01T18:54:14.751Z,41.87
2018-07-01T18:56:44.124Z,42.72
2018-07-01T18:59:13.457Z,41.34
2018-07-01T19:01:42.886Z,40.73
2018-07-01T19:04:12.331Z,41.39
2018-07-01T19:06:43.208Z,41.37
2018-07-01T19:09:12.609Z,41.80
2018-07-01T19:11:42.016Z,42.81
2018-07-01T19:14:11.521Z,42.00
2018-07-01T19:16:41.245Z,43.12
2018-07-01T19:19:10.616Z,43.46
2018-07-01T19:21:39.990Z,43.88
2018-07-01T19:24:09.382Z,43.49
2018-07-01T19:26:38.858Z,44.97
2018-07-01T19:29:08.214Z,43.01
2018-07-01T19:31:38.122Z,43.70
2018-07-01T19:34:07.747Z,43.78
2018-07-01T19:36:37.294Z,44.68
2018-07-01T19:39:10.383Z,45.54
2018-07-01T19:41:39.892Z,45.24
2018-07-01T19:44:09.346Z,50.17
2018-07-01T19:46:38.764Z,54.21
2018-07-01T19:49:08.239Z,56.38
2018-07-01T19:51:37.668Z,49.96
2018-07-01T19:54:07.206Z,51.64
2018-07-01T19:56:36.890Z,49.74
2018-07-01T19:59:06.570Z,49.42
2018-07-01T20:01:36.410Z,51.13
2018-07-01T20:04:06.007Z,53.86
2018-07-01T20:06:35.790Z,55.48
2018-07-01T20:09:09.174Z,51.40
2018-07-01T20:11:38.693Z,52.56
2018-07-01T20:14:08.350Z,54.41
2018-07-01T20:16:37.737Z,50.78
2018-07-01T20:19:07.137Z,55.06
2018-07-01T20:21:36.868Z,50.81
2018-07-01T20:24:08.431Z,50.34
2018-07-01T20:26:37.895Z,48.74
2018-07-01T20:29:07.829Z,53.19
2018-07-01T20:31:38.669Z,50.82
2018-07-01T20:34:08.507Z,49.26
2018-07-01T20:36:39.351Z,49.45
2018-07-01T20:39:13.197Z,50.54
2018-07-01T20:41:43.342Z,50.23
2018-07-01T20:44:13.109Z,49.62
2018-07-01T20:46:42.987Z,49.70
2018-07-01T20:49:12.670Z,49.38
2018-07-01T20:51:42.876Z,47.80
2018-07-01T20:54:12.486Z,49.02
2018-07-01T20:56:41.975Z,48.99
2018-07-01T20:59:11.394Z,48.60
2018-07-01T21:01:40.731Z,51.49
2018-07-01T21:04:10.070Z,48.81
2018-07-01T21:06:39.426Z,49.65
2018-07-01T21:09:10.537Z,46.22
2018-07-01T21:11:39.964Z,47.49
2018-07-01T21:14:09.393Z,46.35
2018-07-01T21:16:39.388Z,50.44
2018-07-01T21:19:08.764Z,49.87
2018-07-01T21:21:38.136Z,48.28
2018-07-01T21:24:07.529Z,49.21
2018-07-01T21:26:36.946Z,47.99
2018-07-01T21:29:06.283Z,49.74
2018-07-01T21:31:35.655Z,47.67
2018-07-01T21:34:05.039Z,47.92
2018-07-01T21:36:34.405Z,47.19
2018-07-01T21:39:04.729Z,46.37
2018-07-01T21:41:34.145Z,48.07
2018-07-01T21:44:03.530Z,48.42
2018-07-01T21:46:32.970Z,47.64
2018-07-01T21:49:02.379Z,48.25
2018-07-01T21:51:31.773Z,47.24
2018-07-01T21:54:01.208Z,47.42
2018-07-01T21:56:30.575Z,47.35
2018-07-01T21:59:00.679Z,48.98
2018-07-01T22:01:30.058Z,47.96
2018-07-01T22:03:59.454Z,48.18
2018-07-01T22:06:34.092Z,49.56
2018-07-01T22:09:03.517Z,48.74
2018-07-01T22:11:51.438Z,49.13
2018-07-01T22:14:42.677Z,49.46
2018-07-01T22:17:12.757Z,49.99
2018-07-01T22:19:42.096Z,49.19
2018-07-01T22:22:11.486Z,48.42
2018-07-01T22:24:41.163Z,49.39
2018-07-01T22:27:10.586Z,49.96
2018-07-01T22:29:39.933Z,49.58
2018-07-01T22:32:09.506Z,50.02
2018-07-01T22:34:39.022Z,51.98
2018-07-01T22:37:08.401Z,51.75
2018-07-01T22:39:37.762Z,50.65
2018-07-01T22:42:07.347Z,50.76
2018-07-01T22:44:36.805Z,52.17
2018-07-01T22:47:06.277Z,52.50
2018-07-01T22:49:35.681Z,52.26
2018-07-01T22:52:05.081Z,51.96
2018-07-01T22:54:34.447Z,52.62
2018-07-01T22:57:03.817Z,52.09
2018-07-01T22:59:33.144Z,52.71
2018-07-01T23:03:14.953Z,52.08
2018-07-01T23:05:44.315Z,52.35
2018-07-01T23:08:13.664Z,52.70
2018-07-01T23:10:43.113Z,52.37
2018-07-01T23:13:12.477Z,53.23
2018-07-01T23:15:41.857Z,52.49
2018-07-01T23:18:11.203Z,53.09
2018-07-01T23:20:40.546Z,52.78
2018-07-01T23:23:09.901Z,52.38
2018-07-01T23:25:39.249Z,51.62
2018-07-01T23:28:08.580Z,52.06
2018-07-01T23:30:37.934Z,52.14
2018-07-01T23:33:07.281Z,52.75
2018-07-01T23:35:36.767Z,52.14
2018-07-01T23:38:06.248Z,51.78
2018-07-01T23:40:35.653Z,52.19
2018-07-01T23:43:05.006Z,52.76
2018-07-01T23:45:34.401Z,52.75
2018-07-01T23:48:03.739Z,52.48
2018-07-01T23:50:33.110Z,53.11
2018-07-01T23:53:02.569Z,52.37
2018-07-01T23:55:31.960Z,51.36
2018-07-01T23:58:01.330Z,53.92
